createdAt,value
2018-12-06T00:00:35.119Z,6.32
2018-12-06T00:01:35.121Z,6.35
2018-12-06T00:02:56.109Z,6.28
2018-12-06T00:03:35.096Z,6.36
2018-12-06T00:04:35.090Z,6.33
2018-12-06T00:05:35.090Z,6.32
2018-12-06T00:06:35.077Z,6.36
2018-12-06T00:07:35.108Z,6.35
2018-12-06T00:08:56.066Z,6.36
2018-12-06T00:09:35.075Z,6.36
2018-12-06T00:10:35.047Z,6.40
2018-12-06T00:11:35.036Z,6.35
2018-12-06T00:12:35.029Z,6.38
2018-12-06T00:13:35.024Z,6.32
2018-12-06T00:14:56.019Z,6.35
2018-12-06T00:15:35.008Z,6.33
2018-12-06T00:16:34.998Z,6.30
2018-12-06T00:17:35.012Z,6.35
2018-12-06T00:18:34.987Z,6.32
2018-12-06T00:19:34.978Z,6.30
2018-12-06T00:20:55.975Z,6.30
2018-12-06T00:21:34.965Z,6.29
2018-12-06T00:22:34.955Z,6.32
2018-12-06T00:23:34.948Z,6.30
2018-12-06T00:24:34.939Z,6.26
2018-12-06T00:25:34.932Z,6.29
2018-12-06T00:26:55.930Z,6.28
2018-12-06T00:27:34.914Z,6.26
2018-12-06T00:28:34.916Z,6.35
2018-12-06T00:29:34.903Z,6.32
2018-12-06T00:30:34.894Z,6.29
2018-12-06T00:31:34.888Z,6.29
2018-12-06T00:32:55.890Z,6.32
2018-12-06T00:33:34.887Z,6.38
2018-12-06T00:34:34.864Z,6.40
2018-12-06T00:35:34.856Z,6.36
2018-12-06T00:36:34.849Z,6.29
2018-12-06T00:37:34.841Z,6.30
2018-12-06T00:38:55.839Z,6.30
2018-12-06T00:39:34.827Z,6.38
2018-12-06T00:40:34.819Z,6.38
2018-12-06T00:41:34.813Z,6.18
2018-12-06T00:42:34.808Z,6.32
2018-12-06T00:43:34.817Z,6.21
2018-12-06T00:44:55.797Z,6.22
2018-12-06T00:45:34.781Z,6.16
2018-12-06T00:46:34.771Z,6.32
2018-12-06T00:47:34.759Z,6.25
2018-12-06T00:48:34.750Z,6.26
2018-12-06T00:49:34.751Z,6.18
2018-12-06T00:50:55.748Z,6.22
2018-12-06T00:51:34.748Z,6.19
2018-12-06T00:52:34.731Z,6.22
2018-12-06T00:53:34.736Z,6.22
2018-12-06T00:54:34.715Z,6.16
2018-12-06T00:55:34.705Z,6.11
2018-12-06T00:56:55.704Z,6.22
2018-12-06T00:57:34.707Z,6.13
2018-12-06T00:58:34.679Z,6.18
2018-12-06T00:59:34.676Z,6.18
2018-12-06T01:00:34.669Z,6.11
2018-12-06T01:01:34.664Z,6.04
2018-12-06T01:02:55.662Z,6.04
2018-12-06T01:03:34.650Z,5.95
2018-12-06T01:04:34.636Z,5.95
2018-12-06T01:05:34.632Z,6.00
2018-12-06T01:06:34.618Z,6.04
2018-12-06T01:07:34.614Z,5.93
2018-12-06T01:08:55.614Z,6.01
2018-12-06T01:09:34.599Z,5.98
2018-12-06T01:10:34.589Z,5.93
2018-12-06T01:11:34.580Z,6.13
2018-12-06T01:12:34.591Z,6.01
2018-12-06T01:13:34.590Z,6.07
2018-12-06T01:14:55.561Z,6.04
2018-12-06T01:15:34.555Z,5.96
2018-12-06T01:16:34.544Z,6.10
2018-12-06T01:17:34.555Z,6.04
2018-12-06T01:18:34.524Z,6.03
2018-12-06T01:19:34.531Z,6.09
2018-12-06T01:20:55.558Z,6.04
2018-12-06T01:21:34.601Z,6.01
2018-12-06T01:22:34.497Z,6.06
2018-12-06T01:23:34.496Z,6.04
2018-12-06T01:24:34.482Z,6.07
2018-12-06T01:25:34.473Z,6.03
2018-12-06T01:26:55.468Z,6.13
2018-12-06T01:27:34.458Z,6.06
2018-12-06T01:28:34.451Z,6.04
2018-12-06T01:29:34.469Z,6.09
2018-12-06T01:30:34.432Z,6.03
2018-12-06T01:31:34.429Z,6.10
2018-12-06T01:32:55.426Z,6.03
2018-12-06T01:33:34.428Z,6.03
2018-12-06T01:34:34.404Z,6.09
2018-12-06T01:35:34.392Z,6.07
2018-12-06T01:36:34.384Z,6.09
2018-12-06T01:37:34.394Z,6.07
2018-12-06T01:38:55.376Z,6.04
2018-12-06T01:39:34.361Z,6.09
2018-12-06T01:40:34.357Z,6.07
2018-12-06T01:41:34.354Z,6.07
2018-12-06T01:42:34.360Z,6.07
2018-12-06T01:43:34.331Z,6.07
2018-12-06T01:44:55.337Z,6.16
2018-12-06T01:45:34.324Z,6.18
2018-12-06T01:46:34.315Z,6.16
2018-12-06T01:47:34.303Z,6.18
2018-12-06T01:48:34.296Z,6.11
2018-12-06T01:49:34.291Z,6.13
2018-12-06T01:50:55.283Z,6.14
2018-12-06T01:51:34.280Z,6.13
2018-12-06T01:52:34.267Z,6.13
2018-12-06T01:53:34.264Z,6.13
2018-12-06T01:54:34.249Z,6.13
2018-12-06T01:55:34.246Z,6.19
2018-12-06T01:56:55.243Z,6.14
2018-12-06T01:57:34.226Z,6.14
2018-12-06T01:58:34.218Z,6.14
2018-12-06T01:59:34.215Z,6.16
2018-12-06T02:00:34.231Z,6.19
2018-12-06T02:01:34.209Z,6.18
2018-12-06T02:02:55.208Z,6.22
2018-12-06T02:03:34.175Z,6.19
2018-12-06T02:04:34.191Z,6.19
2018-12-06T02:05:34.170Z,6.30
2018-12-06T02:06:34.158Z,6.18
2018-12-06T02:07:34.152Z,6.21
2018-12-06T02:08:55.156Z,6.33
2018-12-06T02:09:34.140Z,6.26
2018-12-06T02:10:34.124Z,6.32
2018-12-06T02:11:34.127Z,6.30
2018-12-06T02:12:34.115Z,6.41
2018-12-06T02:13:34.113Z,6.19
2018-12-06T02:14:55.105Z,6.29
2018-12-06T02:15:34.090Z,6.21
2018-12-06T02:16:34.085Z,6.21
2018-12-06T02:17:34.077Z,6.16
2018-12-06T02:18:34.067Z,6.18
2018-12-06T02:19:34.059Z,6.14
2018-12-06T02:20:55.071Z,6.19
2018-12-06T02:21:34.050Z,6.21
2018-12-06T02:22:34.037Z,6.19
2018-12-06T02:23:34.033Z,6.19
2018-12-06T02:24:34.023Z,6.19
2018-12-06T02:25:34.041Z,6.18
2018-12-06T02:26:55.015Z,6.16
2018-12-06T02:27:34.025Z,6.21
2018-12-06T02:28:34.003Z,6.19
2018-12-06T02:29:33.985Z,6.19
2018-12-06T02:30:33.981Z,6.25
2018-12-06T02:31:33.971Z,6.13
2018-12-06T02:32:54.991Z,6.21
2018-12-06T02:33:33.959Z,6.16
2018-12-06T02:34:33.952Z,6.14
2018-12-06T02:35:33.937Z,6.14
2018-12-06T02:36:33.990Z,6.19
2018-12-06T02:37:33.926Z,6.16
2018-12-06T02:38:54.924Z,6.16
2018-12-06T02:39:33.909Z,6.21
2018-12-06T02:40:33.902Z,6.16
2018-12-06T02:41:33.891Z,6.21
2018-12-06T02:42:33.889Z,6.16
2018-12-06T02:43:33.878Z,6.14
2018-12-06T02:44:54.876Z,6.22
2018-12-06T02:45:33.863Z,6.13
2018-12-06T02:46:33.858Z,6.21
2018-12-06T02:47:33.848Z,6.16
2018-12-06T02:48:33.841Z,6.14
2018-12-06T02:49:33.835Z,6.14
2018-12-06T02:50:54.829Z,6.09
2018-12-06T02:51:33.821Z,6.06
2018-12-06T02:52:33.812Z,6.06
2018-12-06T02:53:33.813Z,6.16
2018-12-06T02:54:33.790Z,6.01
2018-12-06T02:55:33.790Z,6.13
2018-12-06T02:56:54.790Z,5.93
2018-12-06T02:57:33.771Z,5.93
2018-12-06T02:58:33.773Z,6.01
2018-12-06T02:59:33.757Z,6.03
2018-12-06T03:00:33.773Z,5.96
2018-12-06T03:01:33.741Z,5.92
2018-12-06T03:02:54.743Z,5.96
2018-12-06T03:03:33.732Z,5.98
2018-12-06T03:04:33.721Z,5.85
2018-12-06T03:05:35.659Z,5.92
2018-12-06T03:06:33.707Z,5.88
2018-12-06T03:07:33.697Z,5.85
2018-12-06T03:08:54.713Z,5.82
2018-12-06T03:09:33.683Z,5.75
2018-12-06T03:10:33.688Z,5.81
2018-12-06T03:11:33.662Z,5.83
2018-12-06T03:12:33.657Z,5.75
2018-12-06T03:13:33.649Z,5.82
2018-12-06T03:14:54.648Z,5.75
2018-12-06T03:15:33.632Z,5.74
2018-12-06T03:16:33.623Z,5.82
2018-12-06T03:17:33.616Z,5.73
2018-12-06T03:18:33.608Z,5.71
2018-12-06T03:19:33.623Z,5.74
2018-12-06T03:20:54.614Z,5.75
2018-12-06T03:21:33.593Z,5.73
2018-12-06T03:22:33.584Z,5.73
2018-12-06T03:23:33.569Z,5.77
2018-12-06T03:24:33.570Z,5.82
2018-12-06T03:25:33.551Z,5.73
2018-12-06T03:26:54.557Z,5.70
2018-12-06T03:27:33.538Z,5.75
2018-12-06T03:28:33.535Z,5.81
2018-12-06T03:29:33.525Z,5.83
2018-12-06T03:30:33.529Z,5.85
2018-12-06T03:31:33.513Z,5.82
2018-12-06T03:32:54.514Z,5.85
2018-12-06T03:33:33.495Z,5.92
2018-12-06T03:34:33.502Z,5.91
2018-12-06T03:35:33.477Z,5.96
2018-12-06T03:36:33.470Z,5.92
2018-12-06T03:37:33.464Z,5.95
2018-12-06T03:38:54.462Z,5.96
2018-12-06T03:39:33.456Z,5.93
2018-12-06T03:40:33.438Z,5.96
2018-12-06T03:41:33.448Z,5.91
2018-12-06T03:42:33.423Z,5.91
2018-12-06T03:43:33.430Z,5.93
2018-12-06T03:44:54.418Z,6.03
2018-12-06T03:45:33.403Z,6.00
2018-12-06T03:46:33.400Z,6.01
2018-12-06T03:47:33.391Z,6.13
2018-12-06T03:48:33.378Z,6.10
2018-12-06T03:49:33.375Z,6.13
2018-12-06T03:50:54.380Z,6.13
2018-12-06T03:51:33.361Z,6.22
2018-12-06T03:52:33.351Z,6.33
2018-12-06T03:53:33.344Z,6.38
2018-12-06T03:54:33.333Z,6.32
2018-12-06T03:55:33.326Z,6.33
2018-12-06T03:56:54.326Z,6.28
2018-12-06T03:57:33.318Z,6.28
2018-12-06T03:58:33.300Z,6.40
2018-12-06T03:59:33.293Z,6.30
2018-12-06T04:00:33.318Z,6.33
2018-12-06T04:01:33.283Z,6.30
2018-12-06T04:02:54.286Z,6.43
2018-12-06T04:03:33.288Z,6.41
2018-12-06T04:04:33.260Z,6.32
2018-12-06T04:05:33.251Z,6.29
2018-12-06T04:06:33.256Z,6.26
2018-12-06T04:07:33.234Z,6.25
2018-12-06T04:08:54.236Z,6.28
2018-12-06T04:09:33.221Z,6.30
2018-12-06T04:10:33.220Z,6.29
2018-12-06T04:11:33.202Z,6.35
2018-12-06T04:12:33.214Z,6.35
2018-12-06T04:13:33.187Z,6.32
2018-12-06T04:14:54.186Z,6.32
2018-12-06T04:15:33.171Z,6.28
2018-12-06T04:16:33.166Z,6.32
2018-12-06T04:17:33.159Z,6.29
2018-12-06T04:18:33.162Z,6.29
2018-12-06T04:19:33.148Z,6.19
2018-12-06T04:20:54.145Z,6.40
2018-12-06T04:21:33.129Z,6.33
2018-12-06T04:22:33.124Z,6.35
2018-12-06T04:23:33.119Z,6.35
2018-12-06T04:24:33.130Z,6.35
2018-12-06T04:25:33.105Z,6.28
2018-12-06T04:26:54.098Z,6.33
2018-12-06T04:27:33.081Z,6.35
2018-12-06T04:28:33.074Z,6.35
2018-12-06T04:29:33.067Z,6.30
2018-12-06T04:30:33.062Z,6.30
2018-12-06T04:31:33.052Z,6.25
2018-12-06T04:32:54.054Z,6.30
2018-12-06T04:33:33.038Z,6.35
2018-12-06T04:34:33.026Z,6.28
2018-12-06T04:35:33.020Z,6.28
2018-12-06T04:36:33.013Z,6.29
2018-12-06T04:37:33.004Z,6.29
2018-12-06T04:38:54.017Z,6.36
2018-12-06T04:39:32.993Z,6.32
2018-12-06T04:40:32.983Z,6.35
2018-12-06T04:41:32.973Z,6.30
2018-12-06T04:42:32.971Z,6.29
2018-12-06T04:43:32.960Z,6.36
2018-12-06T04:44:53.960Z,6.30
2018-12-06T04:45:32.947Z,6.35
2018-12-06T04:46:32.932Z,6.40
2018-12-06T04:47:32.956Z,6.33
2018-12-06T04:48:32.936Z,6.35
2018-12-06T04:49:32.941Z,6.33
2018-12-06T04:50:53.910Z,6.38
2018-12-06T04:51:32.959Z,6.33
2018-12-06T04:52:33.595Z,6.28
2018-12-06T04:53:32.934Z,6.29
2018-12-06T04:54:32.906Z,6.35
2018-12-06T04:55:32.907Z,6.30
2018-12-06T04:56:53.870Z,6.35
2018-12-06T04:57:32.917Z,6.40
2018-12-06T04:58:32.841Z,6.28
2018-12-06T04:59:32.831Z,6.19
2018-12-06T05:00:32.827Z,6.38
2018-12-06T05:01:32.819Z,6.29
2018-12-06T05:02:53.828Z,6.35
2018-12-06T05:03:32.804Z,6.30
2018-12-06T05:04:32.797Z,6.30
2018-12-06T05:05:32.789Z,6.36
2018-12-06T05:06:32.781Z,6.35
2018-12-06T05:07:32.794Z,6.32
2018-12-06T05:08:53.769Z,6.30
2018-12-06T05:09:32.758Z,6.28
2018-12-06T05:10:32.749Z,6.30
2018-12-06T05:11:32.750Z,6.28
2018-12-06T05:12:32.734Z,6.32
2018-12-06T05:13:32.727Z,6.40
2018-12-06T05:14:53.724Z,6.47
2018-12-06T05:15:32.709Z,6.46
2018-12-06T05:16:32.702Z,6.44
2018-12-06T05:17:32.696Z,6.48
2018-12-06T05:18:32.691Z,6.44
2018-12-06T05:19:32.802Z,6.48
2018-12-06T05:20:53.679Z,6.44
2018-12-06T05:21:32.786Z,6.48
2018-12-06T05:22:32.695Z,6.46
2018-12-06T05:23:33.580Z,6.50
2018-12-06T05:24:32.677Z,6.48
2018-12-06T05:25:32.630Z,6.53
2018-12-06T05:26:53.629Z,6.43
2018-12-06T05:27:32.621Z,6.41
2018-12-06T05:28:32.610Z,6.47
2018-12-06T05:29:32.602Z,6.47
2018-12-06T05:30:32.597Z,6.47
2018-12-06T05:31:32.592Z,6.44
2018-12-06T05:32:53.591Z,6.43
2018-12-06T05:33:32.575Z,6.47
2018-12-06T05:34:32.564Z,6.44
2018-12-06T05:35:32.604Z,6.48
2018-12-06T05:36:32.558Z,6.53
2018-12-06T05:37:32.540Z,6.53
2018-12-06T05:38:53.539Z,6.58
2018-12-06T05:39:33.607Z,6.58
2018-12-06T05:40:32.523Z,6.51
2018-12-06T05:41:32.514Z,6.47
2018-12-06T05:42:32.504Z,6.54
2018-12-06T05:43:32.497Z,6.53
2018-12-06T05:44:53.527Z,6.59
2018-12-06T05:45:32.482Z,6.48
2018-12-06T05:46:32.469Z,6.53
2018-12-06T05:47:32.465Z,6.51
2018-12-06T05:48:32.453Z,6.54
2018-12-06T05:49:32.448Z,6.56
2018-12-06T05:50:53.451Z,6.61
2018-12-06T05:51:32.435Z,6.53
2018-12-06T05:52:32.430Z,6.51
2018-12-06T05:53:32.435Z,6.61
2018-12-06T05:54:32.410Z,6.61
2018-12-06T05:55:32.404Z,6.56
2018-12-06T05:56:53.398Z,6.53
2018-12-06T05:57:32.385Z,6.51
2018-12-06T05:58:32.382Z,6.58
2018-12-06T05:59:32.398Z,6.53
2018-12-06T06:00:32.365Z,6.51
2018-12-06T06:01:32.392Z,6.47
2018-12-06T06:02:53.366Z,6.50
2018-12-06T06:03:32.381Z,6.48
2018-12-06T06:04:32.359Z,6.48
2018-12-06T06:05:32.328Z,6.48
2018-12-06T06:06:32.393Z,6.48
2018-12-06T06:07:32.324Z,6.51
2018-12-06T06:08:53.307Z,6.48
2018-12-06T06:09:32.295Z,6.47
2018-12-06T06:10:32.289Z,6.51
2018-12-06T06:11:32.288Z,6.53
2018-12-06T06:12:32.288Z,6.63
2018-12-06T06:13:32.265Z,6.51
2018-12-06T06:14:53.259Z,6.61
2018-12-06T06:15:32.250Z,6.62
2018-12-06T06:16:32.287Z,6.63
2018-12-06T06:17:32.233Z,6.58
2018-12-06T06:18:32.232Z,6.58
2018-12-06T06:19:32.216Z,6.50
2018-12-06T06:20:53.215Z,6.51
2018-12-06T06:21:32.203Z,6.51
2018-12-06T06:22:32.225Z,6.62
2018-12-06T06:23:32.194Z,6.54
2018-12-06T06:24:32.178Z,6.58
2018-12-06T06:25:32.177Z,6.59
2018-12-06T06:26:53.216Z,6.65
2018-12-06T06:27:32.159Z,6.62
2018-12-06T06:28:32.166Z,6.68
2018-12-06T06:29:32.144Z,6.72
2018-12-06T06:30:32.132Z,6.73
2018-12-06T06:31:32.131Z,6.77
2018-12-06T06:32:53.185Z,6.79
2018-12-06T06:33:32.116Z,6.79
2018-12-06T06:34:32.102Z,6.72
2018-12-06T06:35:32.168Z,6.69
2018-12-06T06:36:32.089Z,6.69
2018-12-06T06:37:32.081Z,6.69
2018-12-06T06:38:53.078Z,6.61
2018-12-06T06:39:32.086Z,6.71
2018-12-06T06:40:32.061Z,6.72
2018-12-06T06:41:32.052Z,6.76
2018-12-06T06:42:32.051Z,6.69
2018-12-06T06:43:32.055Z,6.73
2018-12-06T06:44:53.038Z,6.73
2018-12-06T06:49:54.380Z,6.71
2018-12-06T06:51:01.362Z,6.71
2018-12-06T06:52:45.900Z,6.72
2018-12-06T06:53:45.892Z,6.66
2018-12-06T06:54:45.890Z,6.66
2018-12-06T06:55:45.878Z,6.66
2018-12-06T06:56:45.874Z,6.71
2018-12-06T06:57:45.864Z,6.76
2018-12-06T06:58:45.857Z,6.73
2018-12-06T06:59:45.850Z,6.72
2018-12-06T07:00:45.850Z,6.77
2018-12-06T07:01:45.834Z,6.76
2018-12-06T07:02:45.828Z,6.81
2018-12-06T07:03:45.816Z,6.83
2018-12-06T07:04:45.819Z,6.76
2018-12-06T07:05:45.805Z,6.84
2018-12-06T07:06:45.801Z,6.76
2018-12-06T07:07:45.787Z,6.72
2018-12-06T07:08:45.785Z,6.80
2018-12-06T07:09:45.789Z,6.84
2018-12-06T07:10:47.298Z,6.73
2018-12-06T07:11:45.759Z,6.79
2018-12-06T07:12:45.752Z,6.72
2018-12-06T07:13:45.744Z,6.80
2018-12-06T07:14:45.736Z,6.87
2018-12-06T07:15:45.726Z,6.83
2018-12-06T07:16:45.722Z,6.90
2018-12-06T07:17:45.716Z,6.94
2018-12-06T07:18:45.709Z,6.87
2018-12-06T07:19:45.700Z,6.91
2018-12-06T07:20:45.726Z,6.90
2018-12-06T07:21:45.681Z,6.94
2018-12-06T07:22:45.669Z,6.94
2018-12-06T07:23:45.661Z,6.95
2018-12-06T07:24:45.663Z,6.99
2018-12-06T07:25:46.496Z,7.07
2018-12-06T07:26:45.705Z,7.05
2018-12-06T07:27:46.385Z,7.08
2018-12-06T07:28:45.633Z,7.09
2018-12-06T07:29:46.455Z,7.09
2018-12-06T07:30:45.621Z,7.07
2018-12-06T07:31:45.607Z,7.08
2018-12-06T07:32:45.603Z,7.09
2018-12-06T07:33:45.598Z,7.19
2018-12-06T07:34:45.594Z,7.15
2018-12-06T07:35:45.581Z,7.23
2018-12-06T07:36:45.571Z,7.23
2018-12-06T07:37:45.596Z,7.24
2018-12-06T07:38:45.567Z,7.24
2018-12-06T07:39:45.554Z,7.27
2018-12-06T07:40:48.041Z,7.27
2018-12-06T07:41:45.540Z,7.22
2018-12-06T07:42:45.537Z,7.32
2018-12-06T07:43:45.523Z,7.27
2018-12-06T07:44:45.518Z,7.27
2018-12-06T07:45:45.511Z,7.35
2018-12-06T07:46:45.492Z,7.29
2018-12-06T07:47:45.489Z,7.37
2018-12-06T07:48:45.485Z,7.32
2018-12-06T07:49:45.480Z,7.40
2018-12-06T07:50:45.477Z,7.37
2018-12-06T07:51:45.466Z,7.34
2018-12-06T07:52:45.459Z,7.38
2018-12-06T07:53:45.518Z,7.41
2018-12-06T07:54:45.445Z,7.37
2018-12-06T07:55:45.437Z,7.44
2018-12-06T07:56:45.431Z,7.50
2018-12-06T07:57:45.413Z,7.56
2018-12-06T07:58:45.446Z,7.49
2018-12-06T07:59:45.402Z,7.53
2018-12-06T08:00:45.402Z,7.45
2018-12-06T08:01:45.399Z,7.55
2018-12-06T08:02:45.391Z,7.55
2018-12-06T08:03:45.383Z,7.55
2018-12-06T08:04:45.368Z,7.58
2018-12-06T08:05:45.367Z,7.49
2018-12-06T08:06:45.359Z,7.50
2018-12-06T08:07:45.353Z,7.60
2018-12-06T08:08:45.346Z,7.63
2018-12-06T08:09:45.340Z,7.55
2018-12-06T08:10:45.334Z,7.67
2018-12-06T08:11:45.326Z,7.52
2018-12-06T08:12:45.322Z,7.59
2018-12-06T08:13:45.312Z,7.66
2018-12-06T08:14:45.306Z,7.62
2018-12-06T08:15:45.302Z,7.62
2018-12-06T08:16:45.295Z,7.72
2018-12-06T08:17:45.289Z,7.66
2018-12-06T08:18:45.280Z,7.62
2018-12-06T08:19:45.271Z,7.59
2018-12-06T08:20:45.267Z,7.63
2018-12-06T08:21:45.972Z,7.63
2018-12-06T08:22:45.258Z,7.72
2018-12-06T08:23:45.243Z,7.74
2018-12-06T08:24:45.243Z,7.63
2018-12-06T08:25:45.234Z,7.77
2018-12-06T08:26:45.226Z,7.66
2018-12-06T08:27:45.222Z,7.75
2018-12-06T08:28:45.216Z,7.78
2018-12-06T08:29:45.207Z,7.78
2018-12-06T08:30:45.200Z,7.82
2018-12-06T08:31:46.373Z,7.85
2018-12-06T08:32:45.186Z,7.84
2018-12-06T08:33:45.180Z,7.84
2018-12-06T08:34:45.172Z,7.85
2018-12-06T08:35:45.169Z,7.89
2018-12-06T08:36:45.162Z,7.84
2018-12-06T08:37:45.153Z,7.89
2018-12-06T08:38:45.213Z,7.87
2018-12-06T08:39:45.144Z,7.92
2018-12-06T08:40:45.136Z,7.85
2018-12-06T08:41:45.130Z,8.00
2018-12-06T08:42:45.885Z,7.93
2018-12-06T08:43:45.119Z,7.84
2018-12-06T08:44:45.106Z,7.94
2018-12-06T08:45:45.119Z,7.90
2018-12-06T08:46:45.099Z,7.90
2018-12-06T08:47:45.093Z,7.90
2018-12-06T08:48:45.087Z,7.89
2018-12-06T08:49:45.081Z,7.92
2018-12-06T08:50:45.079Z,7.94
2018-12-06T08:51:45.083Z,7.94
2018-12-06T08:52:45.065Z,8.00
2018-12-06T08:53:45.059Z,7.97
2018-12-06T08:54:45.051Z,8.03
2018-12-06T08:55:45.044Z,8.10
2018-12-06T08:56:45.037Z,8.08
2018-12-06T08:57:45.038Z,8.15
2018-12-06T08:58:45.029Z,8.10
2018-12-06T08:59:45.022Z,8.33
2018-12-06T09:00:45.015Z,8.35
2018-12-06T09:01:45.005Z,8.36
2018-12-06T09:02:45.003Z,8.37
2018-12-06T09:03:44.994Z,8.42
2018-12-06T09:04:44.996Z,8.47
2018-12-06T09:05:44.982Z,8.54
2018-12-06T09:06:44.976Z,8.50
2018-12-06T09:07:44.971Z,8.55
2018-12-06T09:08:44.963Z,8.66
2018-12-06T09:09:44.961Z,8.69
2018-12-06T09:10:51.362Z,8.68
2018-12-06T09:11:44.948Z,8.68
2018-12-06T09:12:44.941Z,8.72
2018-12-06T09:13:44.937Z,8.65
2018-12-06T09:14:44.940Z,8.54
2018-12-06T09:15:44.927Z,8.65
2018-12-06T09:16:44.923Z,8.65
2018-12-06T09:17:44.916Z,8.69
2018-12-06T09:18:44.912Z,8.69
2018-12-06T09:19:44.910Z,8.54
2018-12-06T09:20:44.903Z,8.68
2018-12-06T09:21:44.901Z,8.62
2018-12-06T09:22:44.887Z,8.58
2018-12-06T09:23:44.881Z,8.51
2018-12-06T09:24:44.877Z,8.60
2018-12-06T09:25:46.359Z,8.68
2018-12-06T09:26:44.867Z,8.69
2018-12-06T09:27:44.860Z,8.72
2018-12-06T09:28:44.859Z,8.76
2018-12-06T09:29:44.848Z,8.86
2018-12-06T09:30:44.845Z,8.93
2018-12-06T09:31:44.842Z,8.87
2018-12-06T09:32:44.834Z,8.94
2018-12-06T09:33:44.827Z,8.84
2018-12-06T09:34:44.829Z,8.78
2018-12-06T09:35:44.828Z,8.87
2018-12-06T09:36:45.425Z,8.83
2018-12-06T09:37:44.836Z,8.68
2018-12-06T09:38:44.814Z,8.73
2018-12-06T09:39:44.799Z,8.83
2018-12-06T09:40:44.790Z,8.86
2018-12-06T09:41:44.799Z,8.88
2018-12-06T09:42:44.781Z,8.84
2018-12-06T09:43:44.775Z,8.87
2018-12-06T09:44:44.770Z,8.83
2018-12-06T09:45:44.769Z,8.83
2018-12-06T09:46:44.758Z,8.86
2018-12-06T09:47:44.753Z,8.91
2018-12-06T09:48:44.749Z,9.04
2018-12-06T09:49:44.746Z,9.20
2018-12-06T09:50:44.738Z,9.24
2018-12-06T09:51:44.733Z,9.12
2018-12-06T09:52:44.725Z,9.21
2018-12-06T09:53:44.723Z,9.21
2018-12-06T09:54:44.717Z,9.21
2018-12-06T09:55:44.714Z,9.13
2018-12-06T09:56:44.710Z,9.05
2018-12-06T09:57:44.704Z,9.06
2018-12-06T09:58:44.705Z,9.10
2018-12-06T09:59:44.692Z,9.20
2018-12-06T10:00:44.686Z,9.28
2018-12-06T10:01:44.682Z,9.25
2018-12-06T10:02:44.678Z,9.25
2018-12-06T10:03:44.673Z,9.21
2018-12-06T10:04:44.669Z,9.27
2018-12-06T10:05:44.651Z,9.23
2018-12-06T10:06:44.660Z,9.20
2018-12-06T10:07:44.651Z,9.24
2018-12-06T10:08:44.648Z,9.25
2018-12-06T10:09:44.644Z,9.16
2018-12-06T10:10:44.640Z,9.09
2018-12-06T10:11:44.633Z,9.21
2018-12-06T10:12:44.638Z,9.24
2018-12-06T10:13:44.623Z,9.25
2018-12-06T10:14:44.617Z,9.21
2018-12-06T10:15:44.608Z,9.06
2018-12-06T10:16:44.611Z,9.20
2018-12-06T10:17:44.602Z,9.15
2018-12-06T10:18:44.597Z,9.20
2018-12-06T10:19:44.591Z,9.25
2018-12-06T10:20:44.586Z,9.24
2018-12-06T10:21:44.584Z,9.30
2018-12-06T10:22:44.576Z,9.28
2018-12-06T10:23:44.575Z,9.30
2018-12-06T10:24:44.563Z,9.38
2018-12-06T10:25:44.580Z,9.39
2018-12-06T10:26:44.556Z,9.48
2018-12-06T10:27:44.549Z,9.39
2018-12-06T10:28:44.547Z,9.46
2018-12-06T10:29:44.541Z,9.58
2018-12-06T10:30:44.536Z,9.58
2018-12-06T10:31:44.531Z,9.66
2018-12-06T10:32:44.578Z,9.53
2018-12-06T10:33:44.522Z,9.50
2018-12-06T10:34:45.442Z,9.57
2018-12-06T10:35:44.510Z,9.48
2018-12-06T10:36:44.511Z,9.58
2018-12-06T10:37:44.502Z,9.58
2018-12-06T10:38:44.519Z,9.60
2018-12-06T10:39:44.532Z,9.52
2018-12-06T10:40:44.489Z,9.67
2018-12-06T10:41:44.485Z,9.70
2018-12-06T10:42:44.496Z,9.75
2018-12-06T10:43:44.476Z,9.71
2018-12-06T10:44:44.471Z,9.60
2018-12-06T10:45:44.459Z,9.66
2018-12-06T10:46:44.463Z,9.73
2018-12-06T10:47:44.455Z,9.68
2018-12-06T10:48:44.453Z,9.68
2018-12-06T10:49:44.435Z,9.73
2018-12-06T10:50:44.443Z,9.70
2018-12-06T10:51:44.435Z,9.67
2018-12-06T10:52:44.433Z,9.78
2018-12-06T10:53:44.433Z,9.85
2018-12-06T10:54:44.429Z,9.94
2018-12-06T10:55:44.420Z,9.83
2018-12-06T10:56:44.411Z,9.78
2018-12-06T10:57:44.412Z,9.78
2018-12-06T10:58:44.405Z,9.79
2018-12-06T10:59:44.473Z,9.85
2018-12-06T11:00:44.399Z,9.75
2018-12-06T11:01:44.390Z,9.66
2018-12-06T11:02:44.386Z,9.61
2018-12-06T11:03:44.429Z,9.49
2018-12-06T11:04:44.374Z,9.45
2018-12-06T11:05:44.372Z,9.39
2018-12-06T11:06:44.368Z,9.30
2018-12-06T11:07:44.362Z,9.28
2018-12-06T11:08:44.356Z,9.25
2018-12-06T11:09:44.353Z,9.28
2018-12-06T11:10:44.354Z,9.24
2018-12-06T11:11:44.333Z,9.21
2018-12-06T11:12:44.336Z,9.28
2018-12-06T11:13:44.333Z,9.23
2018-12-06T11:14:44.326Z,9.27
2018-12-06T11:15:44.321Z,9.31
2018-12-06T11:16:44.308Z,9.21
2018-12-06T11:17:44.319Z,9.24
2018-12-06T11:18:44.305Z,9.32
2018-12-06T11:19:44.303Z,9.34
2018-12-06T11:20:44.295Z,9.40
2018-12-06T11:21:44.299Z,9.40
2018-12-06T11:22:44.286Z,9.45
2018-12-06T11:23:44.279Z,9.61
2018-12-06T11:24:44.276Z,9.53
2018-12-06T11:25:44.269Z,9.48
2018-12-06T11:26:44.278Z,9.52
2018-12-06T11:27:44.256Z,9.46
2018-12-06T11:28:44.260Z,9.32
2018-12-06T11:29:44.251Z,9.38
2018-12-06T11:30:44.242Z,9.42
2018-12-06T11:31:44.237Z,9.35
2018-12-06T11:32:44.232Z,9.35
2018-12-06T11:33:44.230Z,9.38
2018-12-06T11:34:44.223Z,9.32
2018-12-06T11:35:44.217Z,9.30
2018-12-06T11:36:44.218Z,9.39
2018-12-06T11:37:44.205Z,9.34
2018-12-06T11:38:44.202Z,9.40
2018-12-06T11:39:44.196Z,9.27
2018-12-06T11:40:44.190Z,9.31
2018-12-06T11:41:44.184Z,9.40
2018-12-06T11:42:44.182Z,9.35
2018-12-06T11:43:44.187Z,9.43
2018-12-06T11:44:44.170Z,9.39
2018-12-06T11:45:44.165Z,9.40
2018-12-06T11:46:44.154Z,9.39
2018-12-06T11:47:44.151Z,9.39
2018-12-06T11:48:44.148Z,9.34
2018-12-06T11:49:44.142Z,9.30
2018-12-06T11:50:44.135Z,9.38
2018-12-06T11:51:44.123Z,9.28
2018-12-06T11:52:44.123Z,9.28
2018-12-06T11:53:44.157Z,9.30
2018-12-06T11:55:44.109Z,9.30
2018-12-06T11:56:44.107Z,9.30
2018-12-06T11:57:44.101Z,9.31
2018-12-06T11:58:44.100Z,9.31
2018-12-06T11:59:44.141Z,9.39
2018-12-06T12:00:44.076Z,9.42
2018-12-06T12:02:09.900Z,9.38
2018-12-06T12:02:44.077Z,9.34
2018-12-06T12:03:44.065Z,9.32
2018-12-06T12:04:44.112Z,9.34
2018-12-06T12:05:44.055Z,9.38
2018-12-06T12:06:44.047Z,9.32
2018-12-06T12:08:05.046Z,9.38
2018-12-06T12:08:44.033Z,9.27
2018-12-06T12:09:44.035Z,9.31
2018-12-06T12:10:44.031Z,9.30
2018-12-06T12:11:44.021Z,9.39
2018-12-06T12:12:44.012Z,9.40
2018-12-06T12:14:05.019Z,9.49
2018-12-06T12:14:44.001Z,9.40
2018-12-06T12:15:43.994Z,9.35
2018-12-06T12:16:43.989Z,9.34
2018-12-06T12:17:43.994Z,9.40
2018-12-06T12:18:43.993Z,9.35
2018-12-06T12:20:05.518Z,9.34
2018-12-06T12:20:43.991Z,9.39
2018-12-06T12:21:43.964Z,9.38
2018-12-06T12:22:43.958Z,9.32
2018-12-06T12:23:43.952Z,9.35
2018-12-06T12:24:43.948Z,9.30
2018-12-06T12:26:04.951Z,9.35
2018-12-06T12:26:43.939Z,9.28
2018-12-06T12:27:43.932Z,9.30
2018-12-06T12:28:43.931Z,9.34
2018-12-06T12:29:43.929Z,9.30
2018-12-06T12:30:43.919Z,9.27
2018-12-06T12:32:04.916Z,9.30
2018-12-06T12:32:43.907Z,9.31
2018-12-06T12:33:43.898Z,9.27
2018-12-06T12:34:43.895Z,9.30
2018-12-06T12:35:43.883Z,9.25
2018-12-06T12:36:43.881Z,9.25
2018-12-06T12:38:04.890Z,9.27
2018-12-06T12:38:43.871Z,9.27
2018-12-06T12:39:43.864Z,9.24
2018-12-06T12:40:43.858Z,9.28
2018-12-06T12:41:43.850Z,9.27
2018-12-06T12:42:43.849Z,9.25
2018-12-06T12:44:04.846Z,9.28
2018-12-06T12:44:45.178Z,9.13
2018-12-06T12:45:45.330Z,9.30
2018-12-06T12:46:43.825Z,9.28
2018-12-06T12:47:43.818Z,9.28
2018-12-06T12:48:43.816Z,9.31
2018-12-06T12:50:04.815Z,9.23
2018-12-06T12:50:43.805Z,9.28
2018-12-06T12:51:43.803Z,9.25
2018-12-06T12:52:43.788Z,9.30
2018-12-06T12:53:43.780Z,9.27
2018-12-06T12:54:43.776Z,9.28
2018-12-06T12:56:04.778Z,9.27
2018-12-06T12:56:43.764Z,9.24
2018-12-06T12:57:43.787Z,9.25
2018-12-06T12:58:43.757Z,9.28
2018-12-06T12:59:43.753Z,9.24
2018-12-06T13:00:43.819Z,9.20
2018-12-06T13:02:04.748Z,9.18
2018-12-06T13:02:43.740Z,9.21
2018-12-06T13:03:43.734Z,9.20
2018-12-06T13:04:43.717Z,9.24
2018-12-06T13:05:43.736Z,9.16
2018-12-06T13:06:43.712Z,9.24
2018-12-06T13:08:04.714Z,9.21
2018-12-06T13:08:43.697Z,9.16
2018-12-06T13:09:43.697Z,9.18
2018-12-06T13:10:43.684Z,9.18
2018-12-06T13:11:43.677Z,9.16
2018-12-06T13:12:43.669Z,9.24
2018-12-06T13:14:04.676Z,9.18
2018-12-06T13:14:43.672Z,9.25
2018-12-06T13:15:43.660Z,9.30
2018-12-06T13:16:43.650Z,9.25
2018-12-06T13:17:43.645Z,9.24
2018-12-06T13:18:43.634Z,9.25
2018-12-06T13:20:04.644Z,9.28
2018-12-06T13:20:43.636Z,9.28
2018-12-06T13:21:43.625Z,9.27
2018-12-06T13:22:43.619Z,9.28
2018-12-06T13:23:43.612Z,9.27
2018-12-06T13:24:43.605Z,9.31